createdAt,value
2022-12-25T00:01:22.525Z,4.60
2022-12-25T00:03:57.725Z,4.61
2022-12-25T00:06:30.719Z,4.55
2022-12-25T00:09:03.872Z,4.53
2022-12-25T00:11:36.723Z,4.53
2022-12-25T00:14:10.959Z,4.54
2022-12-25T00:16:43.958Z,4.57
2022-12-25T00:19:16.836Z,4.49
2022-12-25T00:21:49.634Z,4.65
2022-12-25T00:24:22.404Z,4.69
2022-12-25T00:26:55.202Z,4.69
2022-12-25T00:29:29.615Z,4.70
2022-12-25T00:32:02.525Z,4.77
2022-12-25T00:34:35.874Z,4.81
2022-12-25T00:37:08.935Z,4.83
2022-12-25T00:39:41.784Z,4.81
2022-12-25T00:42:20.761Z,4.82
2022-12-25T00:44:55.210Z,4.90
2022-12-25T00:47:28.505Z,5.00
2022-12-25T00:50:01.376Z,4.97
2022-12-25T00:52:34.715Z,5.02
2022-12-25T00:55:08.096Z,5.05
2022-12-25T00:57:40.923Z,5.07
2022-12-25T01:00:16.625Z,5.08
2022-12-25T01:02:49.555Z,4.99
2022-12-25T01:05:22.449Z,5.12
2022-12-25T01:07:55.298Z,4.96
2022-12-25T01:10:27.185Z,4.98
2022-12-25T01:13:00.045Z,5.09
2022-12-25T01:15:34.260Z,5.15
2022-12-25T01:18:08.003Z,5.13
2022-12-25T01:20:41.860Z,5.14
2022-12-25T01:23:14.959Z,5.13
2022-12-25T01:25:47.806Z,5.20
2022-12-25T01:28:20.644Z,5.23
2022-12-25T01:30:55.365Z,5.23
2022-12-25T01:33:28.252Z,5.20
2022-12-25T01:36:01.040Z,5.30
2022-12-25T01:38:33.857Z,5.22
2022-12-25T01:41:06.709Z,5.35
2022-12-25T01:43:58.769Z,5.33
2022-12-25T01:46:33.493Z,5.31
2022-12-25T01:49:11.941Z,5.27
2022-12-25T01:51:48.052Z,5.41
2022-12-25T01:54:25.277Z,5.43
2022-12-25T01:57:03.370Z,5.53
2022-12-25T01:59:36.708Z,5.57
2022-12-25T02:02:11.042Z,5.57
2022-12-25T02:04:49.075Z,5.59
2022-12-25T02:07:24.423Z,5.68
2022-12-25T02:09:57.194Z,5.65
2022-12-25T02:12:33.077Z,5.69
2022-12-25T02:15:09.322Z,5.75
2022-12-25T02:17:50.796Z,5.66
2022-12-25T02:20:54.739Z,5.76
2022-12-25T02:23:44.757Z,5.73
2022-12-25T02:26:29.222Z,5.80
2022-12-25T02:29:11.175Z,5.86
2022-12-25T02:31:51.352Z,5.86
2022-12-25T02:34:35.076Z,5.85
2022-12-25T02:37:13.424Z,5.91
2022-12-25T02:39:59.726Z,5.94
2022-12-25T02:43:00.045Z,5.92
2022-12-25T02:45:56.528Z,6.06
2022-12-25T02:48:51.495Z,6.11
2022-12-25T02:51:46.096Z,6.07
2022-12-25T02:54:41.858Z,6.13
2022-12-25T02:57:47.665Z,6.18
2022-12-25T03:00:38.676Z,6.18
2022-12-25T03:03:32.783Z,6.25
2022-12-25T03:06:37.525Z,6.26
2022-12-25T03:09:31.308Z,6.24
2022-12-25T03:12:12.192Z,6.33
2022-12-25T03:15:02.882Z,6.23
2022-12-25T03:17:36.986Z,6.25
2022-12-25T03:20:31.756Z,6.29
2022-12-25T03:23:27.970Z,6.34
2022-12-25T03:26:18.962Z,6.36
2022-12-25T03:28:51.786Z,6.47
2022-12-25T03:31:32.404Z,6.69
2022-12-25T03:34:42.748Z,6.58
2022-12-25T03:37:44.594Z,6.70
2022-12-25T03:40:42.927Z,6.89
2022-12-25T03:43:44.817Z,6.99
2022-12-25T03:46:38.551Z,7.12
2022-12-25T03:49:36.044Z,7.12
2022-12-25T03:52:30.576Z,6.97
2022-12-25T03:55:28.227Z,7.09
2022-12-25T03:58:18.486Z,7.08
2022-12-25T04:01:08.761Z,7.02
2022-12-25T04:03:59.098Z,7.06
2022-12-25T04:07:00.948Z,7.17
2022-12-25T04:09:51.097Z,7.27
2022-12-25T04:12:42.963Z,7.15
2022-12-25T04:15:33.502Z,7.20
2022-12-25T04:18:24.162Z,7.12
2022-12-25T04:21:14.522Z,7.27
2022-12-25T04:24:05.181Z,7.29
2022-12-25T04:26:55.539Z,7.32
2022-12-25T04:29:47.162Z,7.35
2022-12-25T04:32:37.407Z,7.40
2022-12-25T04:35:28.083Z,7.49
2022-12-25T04:38:00.868Z,7.48
2022-12-25T04:40:33.826Z,7.51
2022-12-25T04:43:06.679Z,7.43
2022-12-25T04:45:40.810Z,7.41
2022-12-25T04:48:13.654Z,7.39
2022-12-25T04:50:46.560Z,7.43
2022-12-25T04:53:19.617Z,7.43
2022-12-25T04:56:02.129Z,7.33
2022-12-25T04:58:35.042Z,7.16
2022-12-25T05:01:09.647Z,7.25
2022-12-25T05:03:43.059Z,7.22
2022-12-25T05:06:15.898Z,6.99
2022-12-25T05:08:48.775Z,6.96
2022-12-25T05:11:22.986Z,7.00
2022-12-25T05:13:55.738Z,6.95
2022-12-25T05:16:29.978Z,6.80
2022-12-25T05:19:02.841Z,6.78
2022-12-25T05:21:35.650Z,6.79
2022-12-25T05:24:08.500Z,6.59
2022-12-25T05:26:41.278Z,6.57
2022-12-25T05:29:14.253Z,6.36
2022-12-25T05:31:48.419Z,6.30
2022-12-25T05:34:21.296Z,6.45
2022-12-25T05:36:54.119Z,6.39
2022-12-25T05:39:26.883Z,6.30
2022-12-25T05:41:59.683Z,6.24
2022-12-25T05:44:32.433Z,6.26
2022-12-25T05:47:06.695Z,6.23
2022-12-25T05:49:39.695Z,6.17
2022-12-25T05:52:12.779Z,6.12
2022-12-25T05:54:45.688Z,6.14
2022-12-25T05:57:18.466Z,6.18
2022-12-25T05:59:51.263Z,6.19
2022-12-25T06:02:25.964Z,6.26
2022-12-25T06:04:58.938Z,6.23
2022-12-25T06:07:31.937Z,6.17
2022-12-25T06:10:05.399Z,6.12
2022-12-25T06:12:38.398Z,6.10
2022-12-25T06:15:11.852Z,6.06
2022-12-25T06:17:46.035Z,6.05
2022-12-25T06:20:19.452Z,6.08
2022-12-25T06:22:52.354Z,6.06
2022-12-25T06:25:25.400Z,6.01
2022-12-25T06:27:58.219Z,5.99
2022-12-25T06:30:30.994Z,5.96
2022-12-25T06:33:05.233Z,5.91
2022-12-25T06:35:40.031Z,5.91
2022-12-25T06:38:12.914Z,5.87
2022-12-25T06:40:45.735Z,5.86
2022-12-25T06:43:18.587Z,5.81
2022-12-25T06:45:52.924Z,5.74
2022-12-25T06:48:27.265Z,5.74
2022-12-25T06:51:00.066Z,5.77
2022-12-25T06:53:40.272Z,5.77
2022-12-25T06:56:16.206Z,5.82
2022-12-25T06:58:51.536Z,5.76
2022-12-25T07:01:28.223Z,5.79
2022-12-25T07:04:04.280Z,5.76
2022-12-25T07:06:37.065Z,5.95
2022-12-25T07:09:09.883Z,5.85
2022-12-25T07:11:42.714Z,5.86
2022-12-25T07:14:24.210Z,5.87
2022-12-25T07:16:57.715Z,5.90
2022-12-25T07:19:32.048Z,6.09
2022-12-25T07:22:04.909Z,6.05
2022-12-25T07:24:37.787Z,6.08
2022-12-25T07:27:11.924Z,6.01
2022-12-25T07:29:44.726Z,5.98
2022-12-25T07:32:17.537Z,5.85
2022-12-25T07:34:51.680Z,5.83
2022-12-25T07:37:24.659Z,5.79
2022-12-25T07:39:57.518Z,5.90
2022-12-25T07:42:30.307Z,5.90
2022-12-25T07:45:03.211Z,5.87
2022-12-25T07:47:36.234Z,5.94
2022-12-25T07:50:12.016Z,5.88
2022-12-25T07:52:47.009Z,5.81
2022-12-25T07:55:19.722Z,5.99
2022-12-25T07:57:52.784Z,5.99
2022-12-25T08:00:29.538Z,6.15
2022-12-25T08:03:02.715Z,6.23
2022-12-25T08:05:37.028Z,6.18
2022-12-25T08:08:09.838Z,6.21
2022-12-25T08:10:47.193Z,6.21
2022-12-25T08:13:20.162Z,6.18
2022-12-25T08:15:59.216Z,6.06
2022-12-25T08:18:32.960Z,6.10
2022-12-25T08:21:09.368Z,6.21
2022-12-25T08:23:43.844Z,6.13
2022-12-25T08:26:18.977Z,6.08
2022-12-25T08:28:52.210Z,6.27
2022-12-25T08:31:26.733Z,6.31
2022-12-25T08:34:00.250Z,6.21
2022-12-25T08:36:34.612Z,6.16
2022-12-25T08:39:07.359Z,6.20
2022-12-25T08:41:40.271Z,6.14
2022-12-25T08:44:13.325Z,6.15
2022-12-25T08:46:46.365Z,6.15
2022-12-25T08:49:19.436Z,6.23
2022-12-25T08:51:53.825Z,6.23
2022-12-25T08:54:26.653Z,6.44
2022-12-25T08:57:02.914Z,6.43
2022-12-25T08:59:35.982Z,6.39
2022-12-25T09:02:10.642Z,6.42
2022-12-25T09:04:45.954Z,6.37
2022-12-25T09:07:20.047Z,6.37
2022-12-25T09:09:53.077Z,6.55
2022-12-25T09:12:25.855Z,6.47
2022-12-25T09:14:58.621Z,6.69
2022-12-25T09:17:31.464Z,6.56
2022-12-25T09:20:04.710Z,6.62
2022-12-25T09:22:39.390Z,6.84
2022-12-25T09:25:12.732Z,6.85
2022-12-25T09:27:45.485Z,6.81
2022-12-25T09:30:18.274Z,6.79
2022-12-25T09:32:51.096Z,6.77
2022-12-25T09:35:24.095Z,6.91
2022-12-25T09:37:58.190Z,6.92
2022-12-25T09:40:33.171Z,6.83
2022-12-25T09:43:05.956Z,6.81
2022-12-25T09:45:40.313Z,6.84
2022-12-25T09:48:16.935Z,6.87
2022-12-25T09:50:52.859Z,6.86
2022-12-25T09:53:29.298Z,6.88
2022-12-25T09:56:09.932Z,6.79
2022-12-25T09:58:42.828Z,6.95
2022-12-25T10:01:27.491Z,6.99
2022-12-25T10:04:12.568Z,7.01
2022-12-25T10:06:58.353Z,7.13
2022-12-25T10:10:00.441Z,7.16
2022-12-25T10:12:46.200Z,7.26
2022-12-25T10:15:32.828Z,7.30
2022-12-25T10:18:33.823Z,7.32
2022-12-25T10:21:13.519Z,7.24
2022-12-25T10:23:50.975Z,7.25
2022-12-25T10:26:26.808Z,7.33
2022-12-25T10:29:03.739Z,7.41
2022-12-25T10:31:38.487Z,7.44
2022-12-25T10:34:14.574Z,7.42
2022-12-25T10:36:49.935Z,7.45
2022-12-25T10:39:25.487Z,7.54
2022-12-25T10:42:12.001Z,7.56
2022-12-25T10:44:56.466Z,7.64
2022-12-25T10:47:31.951Z,7.72
2022-12-25T10:50:11.094Z,7.72
2022-12-25T10:52:56.998Z,7.74
2022-12-25T10:55:30.024Z,7.73
2022-12-25T10:58:04.526Z,7.71
2022-12-25T11:00:37.395Z,7.67
2022-12-25T11:03:23.141Z,7.77
2022-12-25T11:05:56.483Z,7.70
2022-12-25T11:08:31.566Z,7.73
2022-12-25T11:11:06.971Z,7.81
2022-12-25T11:13:49.324Z,7.84
2022-12-25T11:16:31.532Z,7.83
2022-12-25T11:19:22.501Z,7.87
2022-12-25T11:21:57.935Z,7.90
2022-12-25T11:24:32.837Z,7.91
2022-12-25T11:27:07.030Z,7.88
2022-12-25T11:29:45.920Z,7.92
2022-12-25T11:32:23.946Z,7.89
2022-12-25T11:34:57.572Z,8.04
2022-12-25T11:37:36.274Z,8.03
2022-12-25T11:40:15.760Z,8.02
2022-12-25T11:42:52.557Z,8.02
2022-12-25T11:45:33.068Z,8.00
2022-12-25T11:48:12.552Z,8.10
2022-12-25T11:50:49.363Z,8.12
2022-12-25T11:53:30.221Z,8.04
2022-12-25T11:56:08.931Z,8.14
2022-12-25T11:58:44.818Z,8.16
2022-12-25T12:01:28.631Z,8.18
2022-12-25T12:04:03.857Z,8.29
2022-12-25T12:06:47.217Z,8.31
2022-12-25T12:09:31.242Z,8.23
2022-12-25T12:12:11.261Z,8.29
2022-12-25T12:14:50.346Z,8.30
2022-12-25T12:17:24.604Z,8.32
2022-12-25T12:19:58.808Z,8.30
2022-12-25T12:22:31.641Z,8.35
2022-12-25T12:25:08.441Z,8.20
2022-12-25T12:27:42.875Z,8.21
2022-12-25T12:30:24.908Z,8.22
2022-12-25T12:33:01.899Z,8.28
2022-12-25T12:35:37.902Z,8.13
2022-12-25T12:38:16.341Z,8.35
2022-12-25T12:40:55.651Z,8.36
2022-12-25T12:43:33.073Z,8.40
2022-12-25T12:46:15.728Z,8.41
2022-12-25T12:48:52.918Z,8.41
2022-12-25T12:51:31.000Z,8.43
2022-12-25T12:54:20.380Z,8.37
2022-12-25T12:56:57.977Z,8.30
2022-12-25T12:59:39.220Z,8.41
2022-12-25T13:02:45.061Z,8.35
2022-12-25T13:05:34.209Z,8.11
2022-12-25T13:08:20.531Z,8.11
2022-12-25T13:11:04.735Z,8.27
2022-12-25T13:13:41.030Z,8.44
2022-12-25T13:16:20.947Z,8.45
2022-12-25T13:18:55.501Z,8.26
2022-12-25T13:21:30.311Z,8.43
2022-12-25T13:24:07.157Z,8.27
2022-12-25T13:26:40.463Z,8.28
2022-12-25T13:29:23.577Z,8.25
2022-12-25T13:31:56.946Z,8.12
2022-12-25T13:34:32.544Z,8.42
2022-12-25T13:37:14.007Z,8.29
2022-12-25T13:39:51.421Z,8.27
2022-12-25T13:42:27.638Z,8.32
2022-12-25T13:45:03.165Z,8.42
2022-12-25T13:47:38.708Z,8.43
2022-12-25T13:50:21.064Z,8.39
2022-12-25T13:52:59.061Z,8.36
2022-12-25T13:55:34.231Z,8.41
2022-12-25T13:58:12.121Z,8.40
2022-12-25T14:00:49.019Z,8.41
2022-12-25T14:03:24.897Z,8.42
2022-12-25T14:05:59.506Z,8.42
2022-12-25T14:08:36.331Z,8.42
2022-12-25T14:11:10.003Z,8.40
2022-12-25T14:13:45.304Z,8.39
2022-12-25T14:16:19.481Z,8.41
2022-12-25T14:18:54.499Z,8.40
2022-12-25T14:21:31.546Z,8.42
2022-12-25T14:24:13.703Z,8.35
2022-12-25T14:26:46.513Z,8.41
2022-12-25T14:29:25.049Z,8.42
2022-12-25T14:32:05.502Z,8.38
2022-12-25T14:34:38.590Z,8.22
2022-12-25T14:37:17.788Z,8.39
2022-12-25T14:40:00.400Z,8.36
2022-12-25T14:42:35.914Z,8.37
2022-12-25T14:45:28.088Z,8.39
2022-12-25T14:48:03.957Z,8.43
2022-12-25T14:50:43.139Z,8.36
2022-12-25T14:53:20.800Z,8.41
2022-12-25T14:55:56.324Z,8.41
2022-12-25T14:58:32.665Z,8.36
2022-12-25T15:01:06.615Z,8.36
2022-12-25T15:03:39.618Z,8.41
2022-12-25T15:06:20.086Z,8.41
2022-12-25T15:08:58.480Z,8.40
2022-12-25T15:11:32.614Z,8.41
2022-12-25T15:14:05.443Z,8.41
2022-12-25T15:16:42.698Z,8.39
2022-12-25T15:19:25.013Z,8.37
2022-12-25T15:21:59.608Z,8.42
2022-12-25T15:24:32.408Z,8.37
2022-12-25T15:27:13.539Z,8.42
2022-12-25T15:32:39.414Z,8.45
2022-12-25T15:35:16.482Z,8.47
2022-12-25T15:37:49.483Z,8.45
2022-12-25T15:40:22.348Z,8.45
2022-12-25T15:42:56.896Z,8.46
2022-12-25T15:45:31.043Z,8.48
2022-12-25T15:48:03.862Z,8.44
2022-12-25T15:50:37.604Z,8.47
2022-12-25T15:53:11.389Z,8.43
2022-12-25T15:55:44.198Z,8.47
2022-12-25T15:58:18.603Z,8.46
2022-12-25T16:00:51.654Z,8.50
2022-12-25T16:03:24.549Z,8.47
2022-12-25T16:05:57.662Z,8.52
2022-12-25T16:08:30.466Z,8.52
2022-12-25T16:11:03.286Z,8.53
2022-12-25T16:13:37.739Z,8.47
2022-12-25T16:16:10.782Z,8.54
2022-12-25T16:18:47.630Z,8.54
2022-12-25T16:21:25.241Z,8.62
2022-12-25T16:23:58.127Z,8.50
2022-12-25T16:26:33.142Z,8.63
2022-12-25T16:29:07.954Z,8.57
2022-12-25T16:31:41.473Z,8.55
2022-12-25T16:34:14.521Z,8.51
2022-12-25T16:36:47.311Z,8.56
2022-12-25T16:39:20.169Z,8.56
2022-12-25T16:41:52.994Z,8.55
2022-12-25T16:44:27.423Z,8.48
2022-12-25T16:47:00.248Z,8.49
2022-12-25T16:49:33.248Z,8.42
2022-12-25T16:52:08.265Z,8.44
2022-12-25T16:54:40.923Z,8.50
2022-12-25T16:57:14.160Z,8.49
2022-12-25T16:59:48.440Z,8.49
2022-12-25T17:02:22.652Z,8.42
2022-12-25T17:04:55.668Z,8.54
2022-12-25T17:07:28.559Z,8.49
2022-12-25T17:10:01.370Z,8.50
2022-12-25T17:12:34.716Z,8.53
2022-12-25T17:15:10.211Z,8.54
2022-12-25T17:17:43.158Z,8.57
2022-12-25T17:20:16.184Z,8.59
2022-12-25T17:22:49.846Z,8.61
2022-12-25T17:25:22.797Z,8.64
2022-12-25T17:27:55.647Z,8.60
2022-12-25T17:30:29.786Z,8.63
2022-12-25T17:33:02.607Z,8.63
2022-12-25T17:35:37.321Z,8.57
2022-12-25T17:38:10.133Z,8.55
2022-12-25T17:40:42.939Z,8.59
2022-12-25T17:43:20.707Z,8.51
2022-12-25T17:45:55.628Z,8.53
2022-12-25T17:48:28.466Z,8.58
2022-12-25T17:51:01.781Z,8.58
2022-12-25T17:53:36.006Z,8.55
2022-12-25T17:56:10.060Z,8.56
2022-12-25T17:58:43.651Z,8.58
2022-12-25T18:01:18.204Z,8.65
2022-12-25T18:03:51.854Z,8.62
2022-12-25T18:06:27.757Z,8.52
2022-12-25T18:09:00.622Z,8.58
2022-12-25T18:11:36.735Z,8.61
2022-12-25T18:14:13.173Z,8.64
2022-12-25T18:16:47.718Z,8.60
2022-12-25T18:19:20.736Z,8.60
2022-12-25T18:21:54.361Z,8.66
2022-12-25T18:24:27.349Z,8.67
2022-12-25T18:27:00.229Z,8.69
2022-12-25T18:29:33.086Z,8.69
2022-12-25T18:32:07.866Z,8.77
2022-12-25T18:34:40.863Z,8.81
2022-12-25T18:37:13.635Z,8.90
2022-12-25T18:39:46.487Z,8.94
2022-12-25T18:42:36.590Z,9.28
2022-12-25T18:45:12.677Z,9.23
2022-12-25T18:47:47.221Z,9.25
2022-12-25T18:50:20.870Z,9.31
2022-12-25T18:52:53.752Z,9.42
2022-12-25T18:55:26.701Z,9.48
2022-12-25T18:58:00.180Z,9.46
2022-12-25T19:00:33.104Z,9.53
2022-12-25T19:03:07.516Z,9.53
2022-12-25T19:05:42.008Z,9.49
2022-12-25T19:08:15.060Z,9.53
2022-12-25T19:10:48.232Z,9.56
2022-12-25T19:13:22.145Z,9.59
2022-12-25T19:15:59.033Z,9.60
2022-12-25T19:18:33.247Z,9.60
2022-12-25T19:21:08.205Z,9.65
2022-12-25T19:23:41.552Z,9.63
2022-12-25T19:26:14.529Z,9.60
2022-12-25T19:28:47.701Z,9.58
2022-12-25T19:31:21.253Z,9.63
2022-12-25T19:33:55.599Z,9.54
2022-12-25T19:36:28.389Z,9.74
2022-12-25T19:39:01.578Z,9.79
2022-12-25T19:41:35.576Z,10.01
2022-12-25T19:44:08.511Z,9.98
2022-12-25T19:46:42.150Z,9.95
2022-12-25T19:49:16.308Z,9.98
2022-12-25T19:51:49.176Z,9.95
2022-12-25T19:54:21.969Z,10.00
2022-12-25T19:56:54.772Z,10.06
2022-12-25T19:59:27.594Z,10.07
2022-12-25T20:02:00.837Z,10.02
2022-12-25T20:04:35.224Z,10.12
2022-12-25T20:07:08.090Z,10.10
2022-12-25T20:09:40.880Z,9.98
2022-12-25T20:12:16.240Z,10.14
2022-12-25T20:14:49.297Z,10.12
2022-12-25T20:17:22.164Z,10.12
2022-12-25T20:19:56.325Z,10.14
2022-12-25T20:22:29.156Z,10.10
2022-12-25T20:25:03.174Z,10.16
2022-12-25T20:27:36.226Z,10.17
2022-12-25T20:30:10.260Z,10.16
2022-12-25T20:32:49.804Z,10.17
2022-12-25T20:35:24.990Z,10.17
2022-12-25T20:37:57.797Z,10.13
2022-12-25T20:40:32.457Z,10.16
2022-12-25T20:43:14.419Z,10.17
2022-12-25T20:45:52.575Z,10.16
2022-12-25T20:48:26.116Z,10.15
2022-12-25T20:51:08.849Z,10.16
2022-12-25T20:53:42.095Z,10.16
2022-12-25T20:56:17.230Z,10.20
2022-12-25T20:58:54.596Z,10.18
2022-12-25T21:01:29.609Z,10.18
2022-12-25T21:04:02.695Z,10.19
2022-12-25T21:06:36.959Z,10.24
2022-12-25T21:09:09.784Z,10.20
2022-12-25T21:11:42.629Z,10.26
2022-12-25T21:14:15.574Z,10.20
2022-12-25T21:16:50.056Z,10.23
2022-12-25T21:19:22.957Z,10.20
2022-12-25T21:21:57.259Z,10.28
2022-12-25T21:24:30.100Z,10.27
2022-12-25T21:27:02.946Z,10.22
2022-12-25T21:29:35.899Z,10.19
2022-12-25T21:32:26.076Z,10.15
2022-12-25T21:34:58.893Z,10.21
2022-12-25T21:37:33.948Z,10.24
2022-12-25T21:40:12.805Z,10.25
2022-12-25T21:42:48.921Z,10.32
2022-12-25T21:45:21.813Z,10.27
2022-12-25T21:48:01.851Z,10.27
2022-12-25T21:50:53.421Z,10.28
2022-12-25T21:53:27.619Z,10.22
2022-12-25T21:56:02.768Z,10.29
2022-12-25T21:58:35.644Z,10.29
2022-12-25T22:01:08.489Z,10.24
2022-12-25T22:03:41.416Z,10.24
2022-12-25T22:06:31.800Z,10.25
2022-12-25T22:09:07.870Z,10.22
2022-12-25T22:11:58.102Z,10.19
2022-12-25T22:14:51.196Z,10.17
2022-12-25T22:17:45.560Z,10.17
2022-12-25T22:20:20.296Z,10.21
2022-12-25T22:22:54.547Z,10.22
2022-12-25T22:25:29.335Z,10.27
2022-12-25T22:28:02.249Z,10.24
2022-12-25T22:30:35.104Z,10.27
2022-12-25T22:33:07.926Z,10.27
2022-12-25T22:35:40.860Z,10.27
2022-12-25T22:38:13.653Z,10.24
2022-12-25T22:40:47.797Z,10.18
2022-12-25T22:43:20.767Z,10.23
2022-12-25T22:45:53.683Z,10.22
2022-12-25T22:48:26.728Z,10.26
2022-12-25T22:51:02.947Z,10.25
2022-12-25T22:53:35.870Z,10.27
2022-12-25T22:56:10.496Z,10.24
2022-12-25T22:58:43.530Z,10.23
2022-12-25T23:01:17.006Z,10.25
2022-12-25T23:03:53.964Z,10.27
2022-12-25T23:06:28.072Z,10.22
2022-12-25T23:09:01.148Z,10.33
2022-12-25T23:11:36.147Z,10.30
2022-12-25T23:14:27.903Z,10.27
2022-12-25T23:17:01.355Z,10.20
2022-12-25T23:19:51.938Z,10.27
2022-12-25T23:22:42.325Z,10.24
2022-12-25T23:25:33.675Z,10.20
2022-12-25T23:28:07.875Z,10.26
2022-12-25T23:30:39.968Z,10.19
2022-12-25T23:33:14.616Z,10.22
2022-12-25T23:35:47.448Z,10.20
2022-12-25T23:38:21.574Z,10.20
2022-12-25T23:40:54.440Z,10.15
2022-12-25T23:43:28.833Z,10.15
2022-12-25T23:46:01.769Z,10.18
2022-12-25T23:48:34.919Z,10.18
2022-12-25T23:51:08.669Z,10.16
2022-12-25T23:53:41.562Z,10.11
2022-12-25T23:56:14.766Z,10.13
2022-12-25T23:58:51.711Z,10.11
